Time,TemperatureF,DewpointF,PressureIn,WindDirection,WindDirectionDegrees,WindSpeedMPH,WindSpeedGustMPH,Humidity,HourlyPrecipIn,Conditions,Clouds,dailyrainin,SolarRadiationWatts/m^2,SoftwareType,DateUTC
2013-03-17 00:12:00,33.0,29.0,-100.00,WSW,252,6.0,15.0,84,0.00,,,0.00,0.000000,,2013-03-17 06:12:00,
2013-03-17 00:22:00,33.0,29.0,-100.00,WSW,252,6.0,15.0,84,0.00,,,0.00,0.000000,,2013-03-17 06:22:00,
2013-03-17 00:32:00,33.0,29.0,-100.00,WSW,252,6.0,15.0,84,0.00,,,0.00,0.000000,,2013-03-17 06:32:00,
2013-03-17 00:42:00,33.0,29.0,-100.00,WSW,252,6.0,15.0,84,0.00,,,0.00,0.000000,,2013-03-17 06:42:00,
2013-03-17 01:12:00,31.0,30.0,-100.00,SSW,192,4.0,14.0,97,0.00,,,0.00,0.000000,,2013-03-17 07:12:00,
2013-03-17 01:22:00,31.0,30.0,-100.00,SSW,192,4.0,14.0,97,0.00,,,0.00,0.000000,,2013-03-17 07:22:00,
2013-03-17 01:32:00,31.0,30.0,-100.00,SSW,192,4.0,14.0,97,0.00,,,0.00,0.000000,,2013-03-17 07:32:00,
2013-03-17 01:42:00,31.0,30.0,-100.00,SSW,192,4.0,14.0,97,0.00,,,0.00,0.000000,,2013-03-17 07:42:00,
2013-03-17 02:12:00,31.0,31.0,-100.00,SSW,196,3.0,11.0,99,0.00,,,0.00,0.000000,,2013-03-17 08:12:00,
2013-03-17 02:22:00,31.0,31.0,-100.00,SSW,196,3.0,11.0,99,0.00,,,0.00,0.000000,,2013-03-17 08:22:00,
2013-03-17 02:32:00,31.0,31.0,-100.00,SSW,196,3.0,11.0,99,0.00,,,0.00,0.000000,,2013-03-17 08:32:00,
2013-03-17 02:42:00,31.0,31.0,-100.00,SSW,196,3.0,11.0,99,0.00,,,0.00,0.000000,,2013-03-17 08:42:00,
2013-03-17 03:12:00,31.0,31.0,-100.00,SW,214,4.0,11.0,98,0.00,,,0.00,0.000000,,2013-03-17 09:12:00,
2013-03-17 03:22:00,31.0,31.0,-100.00,SW,214,4.0,11.0,98,0.00,,,0.00,0.000000,,2013-03-17 09:22:00,
2013-03-17 03:32:00,31.0,31.0,-100.00,SW,214,4.0,11.0,98,0.00,,,0.00,0.000000,,2013-03-17 09:32:00,
2013-03-17 03:42:00,31.0,31.0,-100.00,SW,214,4.0,11.0,98,0.00,,,0.00,0.000000,,2013-03-17 09:42:00,
2013-03-17 04:13:00,31.0,30.0,-100.00,SSW,207,5.0,13.0,97,0.00,,,0.00,0.000000,,2013-03-17 10:13:00,
2013-03-17 04:23:00,31.0,30.0,-100.00,SSW,207,5.0,13.0,97,0.00,,,0.00,0.000000,,2013-03-17 10:23:00,
2013-03-17 04:33:00,31.0,30.0,-100.00,SSW,207,5.0,13.0,97,0.00,,,0.00,0.000000,,2013-03-17 10:33:00,
2013-03-17 04:42:00,31.0,30.0,-100.00,SSW,207,5.0,13.0,97,0.00,,,0.00,0.000000,,2013-03-17 10:42:00,
2013-03-17 05:12:00,30.0,29.0,-100.00,SSW,192,5.0,13.0,95,0.00,,,0.00,0.000000,,2013-03-17 11:12:00,
2013-03-17 05:22:00,30.0,29.0,-100.00,SSW,192,5.0,13.0,95,0.00,,,0.00,0.000000,,2013-03-17 11:22:00,
2013-03-17 05:32:00,30.0,29.0,-100.00,SSW,192,5.0,13.0,95,0.00,,,0.00,0.000000,,2013-03-17 11:32:00,
2013-03-17 05:42:00,30.0,29.0,-100.00,SSW,192,5.0,13.0,95,0.00,,,0.00,0.000000,,2013-03-17 11:42:00,
2013-03-17 06:12:00,28.0,26.0,-100.00,SSW,192,5.0,19.0,91,0.00,,,0.00,0.000000,,2013-03-17 12:12:00,
2013-03-17 06:22:00,28.0,26.0,-100.00,SSW,192,5.0,19.0,91,0.00,,,0.00,0.000000,,2013-03-17 12:22:00,
2013-03-17 06:32:00,28.0,26.0,-100.00,SSW,192,5.0,19.0,91,0.00,,,0.00,0.000000,,2013-03-17 12:32:00,
2013-03-17 06:42:00,28.0,26.0,-100.00,SSW,192,5.0,19.0,91,0.00,,,0.00,0.000000,,2013-03-17 12:42:00,
2013-03-17 07:12:00,26.0,23.0,-100.00,South,188,5.0,19.0,88,0.00,,,0.00,0.000000,,2013-03-17 13:12:00,
2013-03-17 07:22:00,26.0,23.0,-100.00,South,188,5.0,19.0,88,0.00,,,0.00,0.000000,,2013-03-17 13:22:00,
2013-03-17 07:32:00,26.0,23.0,-100.00,South,188,5.0,19.0,88,0.00,,,0.00,0.000000,,2013-03-17 13:32:00,
2013-03-17 07:42:00,26.0,23.0,-100.00,South,188,5.0,19.0,88,0.00,,,0.00,0.000000,,2013-03-17 13:42:00,
2013-03-17 08:12:00,24.0,23.0,-100.00,SSW,202,3.0,16.0,94,0.00,,,0.00,0.000000,,2013-03-17 14:12:00,
2013-03-17 08:22:00,24.0,23.0,-100.00,SSW,202,3.0,16.0,94,0.00,,,0.00,0.000000,,2013-03-17 14:22:00,
2013-03-17 08:32:00,24.0,23.0,-100.00,SSW,202,3.0,16.0,94,0.00,,,0.00,0.000000,,2013-03-17 14:32:00,
2013-03-17 08:42:00,24.0,23.0,-100.00,SSW,202,3.0,16.0,94,0.00,,,0.00,0.000000,,2013-03-17 14:42:00,
2013-03-17 09:12:00,24.0,23.0,-100.00,SW,217,4.0,18.0,94,0.00,,,0.00,2.000000,,2013-03-17 15:12:00,
2013-03-17 09:23:00,24.0,23.0,-100.00,SW,217,4.0,18.0,94,0.00,,,0.00,2.000000,,2013-03-17 15:23:00,
2013-03-17 09:32:00,24.0,23.0,-100.00,SW,217,4.0,18.0,94,0.00,,,0.00,2.000000,,2013-03-17 15:32:00,
2013-03-17 09:42:00,24.0,23.0,-100.00,SW,217,4.0,18.0,94,0.00,,,0.00,2.000000,,2013-03-17 15:42:00,
2013-03-17 10:12:00,23.0,22.0,-100.00,SW,232,6.0,17.0,94,0.00,,,0.00,4.000000,,2013-03-17 16:12:00,
2013-03-17 10:22:00,23.0,22.0,-100.00,SW,232,6.0,17.0,94,0.00,,,0.00,4.000000,,2013-03-17 16:22:00,
2013-03-17 10:33:00,23.0,22.0,-100.00,SW,232,6.0,17.0,94,0.00,,,0.00,4.000000,,2013-03-17 16:33:00,
2013-03-17 10:42:00,23.0,22.0,-100.00,SW,232,6.0,17.0,94,0.00,,,0.00,4.000000,,2013-03-17 16:42:00,
2013-03-17 11:12:00,22.0,19.0,-100.00,WNW,293,5.0,14.0,87,0.00,,,0.00,11.000000,,2013-03-17 17:12:00,
2013-03-17 11:22:00,22.0,19.0,-100.00,WNW,293,5.0,14.0,87,0.00,,,0.00,11.000000,,2013-03-17 17:22:00,
2013-03-17 11:33:00,22.0,19.0,-100.00,WNW,293,5.0,14.0,87,0.00,,,0.00,11.000000,,2013-03-17 17:33:00,
2013-03-17 11:42:00,22.0,19.0,-100.00,WNW,293,5.0,14.0,87,0.00,,,0.00,11.000000,,2013-03-17 17:42:00,
2013-03-17 12:12:00,25.0,15.0,-100.00,West,264,5.0,10.0,65,0.00,,,0.00,45.000000,,2013-03-17 18:12:00,
2013-03-17 12:22:00,25.0,15.0,-100.00,West,264,5.0,10.0,65,0.00,,,0.00,45.000000,,2013-03-17 18:22:00,
2013-03-17 12:32:00,25.0,15.0,-100.00,West,264,5.0,10.0,65,0.00,,,0.00,45.000000,,2013-03-17 18:32:00,
2013-03-17 12:42:00,25.0,15.0,-100.00,West,264,5.0,10.0,65,0.00,,,0.00,45.000000,,2013-03-17 18:42:00,
2013-03-17 13:12:00,28.0,13.0,-100.00,West,273,6.0,17.0,52,0.01,,,0.01,61.000000,,2013-03-17 19:12:00,
2013-03-17 13:22:00,28.0,13.0,-100.00,West,273,6.0,17.0,52,0.01,,,0.01,61.000000,,2013-03-17 19:22:00,
2013-03-17 13:32:00,28.0,13.0,-100.00,West,273,6.0,17.0,52,0.01,,,0.01,61.000000,,2013-03-17 19:32:00,
2013-03-17 13:41:00,28.0,13.0,-100.00,West,273,6.0,17.0,52,0.01,,,0.01,61.000000,,2013-03-17 19:41:00,
2013-03-17 14:12:00,25.0,9.0,-100.00,WNW,284,6.0,15.0,49,0.05,,,0.06,105.000000,,2013-03-17 20:12:00,
2013-03-17 14:22:00,25.0,9.0,-100.00,WNW,284,6.0,15.0,49,0.05,,,0.06,105.000000,,2013-03-17 20:22:00,
2013-03-17 14:42:00,25.0,9.0,-100.00,WNW,284,6.0,15.0,49,0.05,,,0.06,105.000000,,2013-03-17 20:42:00,
2013-03-17 15:12:00,25.0,7.0,-100.00,West,270,5.0,15.0,45,0.01,,,0.07,114.000000,,2013-03-17 21:12:00,
2013-03-17 15:22:00,25.0,7.0,-100.00,West,270,5.0,15.0,45,0.01,,,0.07,114.000000,,2013-03-17 21:22:00,
2013-03-17 15:33:00,25.0,7.0,-100.00,West,270,5.0,15.0,45,0.01,,,0.07,114.000000,,2013-03-17 21:33:00,
2013-03-17 15:42:00,25.0,7.0,-100.00,West,270,5.0,15.0,45,0.01,,,0.07,114.000000,,2013-03-17 21:42:00,
2013-03-17 16:12:00,26.0,4.0,-100.00,NW,304,5.0,12.0,39,0.01,,,0.08,118.000000,,2013-03-17 22:12:00,
2013-03-17 16:23:00,26.0,4.0,-100.00,NW,304,5.0,12.0,39,0.01,,,0.08,118.000000,,2013-03-17 22:23:00,
2013-03-17 16:33:00,26.0,4.0,-100.00,NW,304,5.0,12.0,39,0.01,,,0.08,118.000000,,2013-03-17 22:33:00,
2013-03-17 16:42:00,26.0,4.0,-100.00,NW,304,5.0,12.0,39,0.01,,,0.08,118.000000,,2013-03-17 22:42:00,
2013-03-17 17:12:00,28.0,5.0,-100.00,West,274,7.0,15.0,36,0.00,,,0.08,151.000000,,2013-03-17 23:12:00,
2013-03-17 17:22:00,28.0,5.0,-100.00,West,274,7.0,15.0,36,0.00,,,0.08,151.000000,,2013-03-17 23:22:00,
2013-03-17 17:32:00,28.0,5.0,-100.00,West,274,7.0,15.0,36,0.00,,,0.08,151.000000,,2013-03-17 23:32:00,
2013-03-17 17:42:00,28.0,5.0,-100.00,West,274,7.0,15.0,36,0.00,,,0.08,151.000000,,2013-03-17 23:42:00,
2013-03-17 18:12:00,26.0,4.0,-100.00,West,268,6.0,15.0,38,0.00,,,0.08,84.000000,,2013-03-18 00:12:00,
2013-03-17 18:22:00,26.0,4.0,-100.00,West,268,6.0,15.0,38,0.00,,,0.08,84.000000,,2013-03-18 00:22:00,
2013-03-17 18:32:00,26.0,4.0,-100.00,West,268,6.0,15.0,38,0.00,,,0.08,84.000000,,2013-03-18 00:32:00,
2013-03-17 18:42:00,26.0,4.0,-100.00,West,268,6.0,15.0,38,0.00,,,0.08,84.000000,,2013-03-18 00:42:00,
2013-03-17 19:12:00,27.0,4.0,-100.00,West,260,6.0,14.0,37,0.00,,,0.08,107.000000,,2013-03-18 01:12:00,
2013-03-17 19:22:00,27.0,4.0,-100.00,West,260,6.0,14.0,37,0.00,,,0.08,107.000000,,2013-03-18 01:22:00,
2013-03-17 19:32:00,27.0,4.0,-100.00,West,260,6.0,14.0,37,0.00,,,0.08,107.000000,,2013-03-18 01:32:00,
2013-03-17 19:42:00,27.0,4.0,-100.00,West,260,6.0,14.0,37,0.00,,,0.08,107.000000,,2013-03-18 01:42:00,
2013-03-17 20:12:00,22.0,5.0,-100.00,West,265,3.0,13.0,47,0.00,,,0.08,16.000000,,2013-03-18 02:12:00,
2013-03-17 20:22:00,22.0,5.0,-100.00,West,265,3.0,13.0,47,0.00,,,0.08,16.000000,,2013-03-18 02:22:00,
2013-03-17 20:32:00,22.0,5.0,-100.00,West,265,3.0,13.0,47,0.00,,,0.08,16.000000,,2013-03-18 02:32:00,
2013-03-17 20:42:00,22.0,5.0,-100.00,West,265,3.0,13.0,47,0.00,,,0.08,16.000000,,2013-03-18 02:42:00,
2013-03-17 21:11:00,19.0,8.0,-100.00,WNW,289,2.0,4.0,61,0.00,,,0.08,0.000000,,2013-03-18 03:11:00,
2013-03-17 21:22:00,19.0,8.0,-100.00,WNW,289,2.0,4.0,61,0.00,,,0.08,0.000000,,2013-03-18 03:22:00,
2013-03-17 21:32:00,19.0,8.0,-100.00,WNW,289,2.0,4.0,61,0.00,,,0.08,0.000000,,2013-03-18 03:32:00,
2013-03-17 21:42:00,19.0,8.0,-100.00,WNW,289,2.0,4.0,61,0.00,,,0.08,0.000000,,2013-03-18 03:42:00,
2013-03-17 22:13:00,13.0,8.0,-100.00,North,358,0.0,3.0,81,0.00,,,0.08,0.000000,,2013-03-18 04:13:00,
2013-03-17 22:22:00,13.0,8.0,-100.00,North,358,0.0,3.0,81,0.00,,,0.08,0.000000,,2013-03-18 04:22:00,
2013-03-17 23:12:00,9.0,5.0,-100.00,SW,228,0.0,2.0,83,-99.99,,,0.08,0.000000,,2013-03-18 05:12:00,
2013-03-17 23:22:00,9.0,5.0,-100.00,SW,228,0.0,2.0,83,-99.99,,,0.08,0.000000,,2013-03-18 05:22:00,